createdAt,value
2023-01-31T00:00:16.474Z,11.93
2023-01-31T00:02:45.413Z,11.30
2023-01-31T00:05:13.973Z,13.40
2023-01-31T00:07:42.759Z,12.37
2023-01-31T00:10:12.997Z,11.83
2023-01-31T00:12:41.649Z,12.27
2023-01-31T00:15:13.761Z,12.57
2023-01-31T00:17:42.237Z,14.83
2023-01-31T00:20:12.465Z,13.13
2023-01-31T00:22:41.301Z,12.40
2023-01-31T00:25:10.760Z,12.03
2023-01-31T00:27:39.527Z,12.20
2023-01-31T00:30:10.718Z,11.77
2023-01-31T00:32:41.310Z,11.47
2023-01-31T00:35:10.546Z,12.30
2023-01-31T00:37:39.189Z,12.10
2023-01-31T00:40:09.236Z,13.00
2023-01-31T00:42:38.698Z,12.47
2023-01-31T00:45:08.725Z,10.23
2023-01-31T00:47:37.643Z,10.87
2023-01-31T00:50:08.731Z,9.83
2023-01-31T00:53:04.519Z,10.60
2023-01-31T00:55:33.292Z,9.00
2023-01-31T00:58:01.738Z,10.20
2023-01-31T01:00:30.336Z,11.70
2023-01-31T01:02:59.035Z,11.57
2023-01-31T01:05:29.084Z,11.23
2023-01-31T01:07:58.006Z,11.57
2023-01-31T01:10:51.066Z,13.43
2023-01-31T01:13:20.002Z,11.67
2023-01-31T01:15:48.411Z,11.80
2023-01-31T01:18:17.111Z,10.67
2023-01-31T01:20:47.752Z,12.13
2023-01-31T01:23:17.008Z,13.17
2023-01-31T01:25:46.511Z,12.43
2023-01-31T01:28:42.086Z,11.43
2023-01-31T01:31:12.960Z,10.00
2023-01-31T01:33:41.718Z,9.67
2023-01-31T01:36:17.493Z,9.60
2023-01-31T01:38:46.830Z,10.83
2023-01-31T01:41:15.912Z,10.17
2023-01-31T01:43:45.997Z,8.77
2023-01-31T01:46:20.503Z,9.37
2023-01-31T01:48:52.927Z,8.87
2023-01-31T01:51:23.875Z,9.80
2023-01-31T01:53:59.188Z,9.10
2023-01-31T01:56:32.640Z,8.80
2023-01-31T01:59:06.260Z,8.33
2023-01-31T02:01:39.198Z,8.50
2023-01-31T02:04:11.298Z,8.53
2023-01-31T02:06:42.141Z,9.27
2023-01-31T02:09:18.137Z,9.63
2023-01-31T02:11:47.037Z,10.20
2023-01-31T02:14:16.736Z,9.07
2023-01-31T02:16:45.431Z,9.67
2023-01-31T02:19:21.443Z,8.20
2023-01-31T02:22:11.324Z,8.60
2023-01-31T02:25:13.266Z,8.20
2023-01-31T02:28:11.961Z,8.03
2023-01-31T02:31:26.400Z,7.80
2023-01-31T02:34:03.367Z,8.20
2023-01-31T02:36:40.250Z,7.83
2023-01-31T02:39:17.446Z,6.57
2023-01-31T02:41:52.096Z,7.13
2023-01-31T02:44:45.509Z,6.03
2023-01-31T02:47:26.341Z,7.07
2023-01-31T02:50:00.858Z,28.23
2023-01-31T02:52:36.534Z,22.40
2023-01-31T02:55:29.328Z,10.70
2023-01-31T02:58:01.468Z,8.90
2023-01-31T03:00:33.422Z,6.83
2023-01-31T03:03:02.430Z,6.80
2023-01-31T03:05:32.934Z,6.57
2023-01-31T03:08:05.236Z,6.63
2023-01-31T03:10:57.860Z,6.17
2023-01-31T03:13:41.098Z,6.97
2023-01-31T03:16:36.578Z,6.80
2023-01-31T03:19:14.237Z,7.17
2023-01-31T03:21:48.960Z,6.90
2023-01-31T03:24:19.206Z,6.70
2023-01-31T03:26:49.135Z,6.87
2023-01-31T03:29:18.716Z,7.43
2023-01-31T03:31:51.887Z,6.77
2023-01-31T03:34:21.429Z,7.30
2023-01-31T03:36:59.082Z,7.83
2023-01-31T03:39:36.481Z,8.30
2023-01-31T03:42:09.772Z,7.77
2023-01-31T03:44:45.138Z,8.00
2023-01-31T03:47:19.006Z,8.40
2023-01-31T03:49:49.715Z,8.77
2023-01-31T03:52:24.761Z,8.17
2023-01-31T03:54:59.851Z,8.83
2023-01-31T03:57:34.620Z,10.70
2023-01-31T04:00:07.771Z,9.00
2023-01-31T04:02:38.532Z,8.20
2023-01-31T04:05:10.667Z,8.03
2023-01-31T04:07:42.554Z,8.23
2023-01-31T04:10:15.280Z,9.23
2023-01-31T04:12:44.424Z,8.47
2023-01-31T04:15:14.270Z,8.73
2023-01-31T04:17:42.961Z,8.80
2023-01-31T04:20:13.328Z,10.33
2023-01-31T04:22:43.451Z,9.90
2023-01-31T04:25:12.903Z,8.83
2023-01-31T04:27:41.695Z,9.23
2023-01-31T04:30:11.827Z,9.50
2023-01-31T04:32:41.121Z,9.50
2023-01-31T04:36:00.076Z,9.90
2023-01-31T04:38:30.313Z,9.97
2023-01-31T04:40:58.816Z,10.13
2023-01-31T04:43:27.538Z,10.17
2023-01-31T04:45:56.505Z,10.20
2023-01-31T04:48:25.371Z,11.97
2023-01-31T04:50:54.236Z,12.60
2023-01-31T04:53:23.429Z,12.33
2023-01-31T04:55:55.852Z,12.87
2023-01-31T04:58:24.552Z,12.97
2023-01-31T05:00:55.176Z,11.17
2023-01-31T05:03:48.485Z,10.03
2023-01-31T05:06:42.076Z,9.13
2023-01-31T05:09:11.849Z,10.07
2023-01-31T05:11:42.254Z,8.53
2023-01-31T05:14:11.097Z,9.60
2023-01-31T05:16:39.978Z,8.30
2023-01-31T05:19:08.556Z,8.07
2023-01-31T05:21:55.343Z,8.70
2023-01-31T05:24:24.331Z,8.30
2023-01-31T05:26:58.601Z,8.03
2023-01-31T05:29:32.799Z,7.73
2023-01-31T05:32:03.778Z,7.80
2023-01-31T05:34:33.454Z,8.47
2023-01-31T05:37:02.815Z,7.73
2023-01-31T05:39:31.689Z,8.93
2023-01-31T05:42:02.046Z,9.73
2023-01-31T05:44:32.444Z,9.10
2023-01-31T05:47:01.818Z,8.83
2023-01-31T05:49:34.720Z,8.90
2023-01-31T05:52:03.688Z,7.83
2023-01-31T05:54:32.625Z,8.60
2023-01-31T05:57:02.882Z,8.57
2023-01-31T05:59:50.331Z,10.63
2023-01-31T06:02:19.235Z,9.93
2023-01-31T06:04:47.814Z,10.87
2023-01-31T06:07:23.801Z,9.30
2023-01-31T06:09:52.560Z,9.53
2023-01-31T06:12:22.453Z,12.10
2023-01-31T06:14:51.097Z,10.53
2023-01-31T06:17:38.007Z,9.70
2023-01-31T06:20:12.653Z,10.37
2023-01-31T06:22:42.571Z,12.23
2023-01-31T06:25:11.875Z,10.07
2023-01-31T06:27:42.428Z,9.70
2023-01-31T06:30:12.173Z,10.93
2023-01-31T06:32:40.935Z,10.07
2023-01-31T06:35:10.321Z,10.90
2023-01-31T06:37:38.922Z,11.90
2023-01-31T06:40:08.433Z,10.13
2023-01-31T06:42:37.734Z,10.77
2023-01-31T06:45:09.786Z,9.47
2023-01-31T06:47:48.000Z,9.03
2023-01-31T06:50:20.091Z,9.20
2023-01-31T06:52:48.858Z,9.23
2023-01-31T06:55:17.753Z,9.67
2023-01-31T06:57:49.957Z,9.27
2023-01-31T07:00:22.228Z,8.33
2023-01-31T07:02:51.263Z,8.97
2023-01-31T07:05:21.027Z,8.30
2023-01-31T07:07:50.214Z,8.80
2023-01-31T07:10:41.372Z,8.70
2023-01-31T07:13:09.856Z,10.93
2023-01-31T07:15:40.327Z,9.43
2023-01-31T07:18:09.381Z,10.10
2023-01-31T07:20:38.125Z,10.63
2023-01-31T07:23:31.688Z,10.87
2023-01-31T07:26:02.370Z,9.53
2023-01-31T07:28:31.189Z,9.03
2023-01-31T07:31:07.646Z,10.07
2023-01-31T07:33:36.314Z,10.13
2023-01-31T07:36:05.998Z,8.83
2023-01-31T07:38:35.445Z,9.60
2023-01-31T07:41:05.855Z,9.80
2023-01-31T12:17:29.447Z,3.90
2023-01-31T12:20:28.594Z,3.97
2023-01-31T12:23:11.282Z,3.50
2023-01-31T12:26:05.791Z,4.30
2023-01-31T12:29:07.547Z,3.90
2023-01-31T12:32:02.795Z,3.80
2023-01-31T12:35:08.073Z,4.10
2023-01-31T12:37:56.409Z,4.13
2023-01-31T12:40:41.152Z,3.97
2023-01-31T12:43:39.635Z,3.63
2023-01-31T12:46:32.661Z,4.13
2023-01-31T12:49:31.441Z,4.90
2023-01-31T12:52:16.131Z,8.30
2023-01-31T12:55:04.331Z,4.50
2023-01-31T12:57:44.531Z,3.93
2023-01-31T13:00:35.290Z,3.43
2023-01-31T13:03:39.096Z,3.60
2023-01-31T13:06:15.571Z,3.80
2023-01-31T13:09:07.229Z,3.73
2023-01-31T13:11:51.010Z,6.23
2023-01-31T13:14:23.841Z,6.23
2023-01-31T13:17:00.179Z,3.83
2023-01-31T13:19:37.794Z,3.80
2023-01-31T13:22:15.909Z,3.73
2023-01-31T13:24:52.947Z,3.43
2023-01-31T13:27:29.143Z,3.43
2023-01-31T13:30:02.852Z,4.80
2023-01-31T13:32:39.584Z,3.27
2023-01-31T13:35:23.100Z,3.43
2023-01-31T13:37:57.945Z,3.97
2023-01-31T13:40:33.968Z,4.70
2023-01-31T13:43:13.125Z,5.47
2023-01-31T13:45:48.446Z,4.33
2023-01-31T13:48:27.923Z,3.90
2023-01-31T13:51:03.548Z,3.73
2023-01-31T13:53:37.587Z,4.10
2023-01-31T13:56:14.454Z,3.90
2023-01-31T13:58:45.964Z,3.77
2023-01-31T14:01:21.294Z,4.20
2023-01-31T14:04:34.947Z,3.67
2023-01-31T14:07:25.274Z,3.50
2023-01-31T14:10:43.896Z,3.73
2023-01-31T14:13:44.367Z,3.87
2023-01-31T14:16:49.328Z,4.80
2023-01-31T14:20:09.754Z,3.47
2023-01-31T14:22:41.526Z,3.77
2023-01-31T14:25:17.099Z,3.53
2023-01-31T14:28:02.724Z,3.80
2023-01-31T14:30:41.187Z,4.00
2023-01-31T14:33:25.266Z,3.40
2023-01-31T14:36:36.554Z,5.17
2023-01-31T14:40:03.994Z,3.23
2023-01-31T14:43:09.523Z,4.07
2023-01-31T14:46:37.230Z,4.60
2023-01-31T14:49:44.757Z,6.20
2023-01-31T14:52:37.958Z,4.10
2023-01-31T14:55:39.867Z,4.03
2023-01-31T14:58:17.634Z,5.20
2023-01-31T15:00:52.847Z,5.27
2023-01-31T15:03:26.857Z,4.70
2023-01-31T15:06:08.857Z,4.50
2023-01-31T15:08:46.832Z,4.33
2023-01-31T15:11:42.647Z,4.50
2023-01-31T15:14:41.026Z,4.80
2023-01-31T15:17:34.096Z,4.30
2023-01-31T15:20:17.932Z,4.47
2023-01-31T15:22:50.150Z,4.93
2023-01-31T15:25:36.008Z,5.67
2023-01-31T15:28:06.554Z,4.50
2023-01-31T15:30:37.468Z,4.57
2023-01-31T15:33:14.570Z,4.83
2023-01-31T15:35:51.434Z,4.37
2023-01-31T15:38:33.453Z,3.67
2023-01-31T15:41:25.450Z,4.33
2023-01-31T15:43:56.919Z,4.57
2023-01-31T15:46:30.696Z,4.37
2023-01-31T15:49:00.241Z,4.60
2023-01-31T15:51:29.940Z,4.10
2023-01-31T15:54:06.891Z,4.03
2023-01-31T15:56:40.523Z,4.10
2023-01-31T15:59:16.240Z,4.03
2023-01-31T16:01:50.267Z,4.00
2023-01-31T16:04:19.055Z,4.40
2023-01-31T16:06:48.795Z,4.17
2023-01-31T16:09:30.079Z,4.10
2023-01-31T16:12:00.436Z,4.20
2023-01-31T16:14:30.489Z,4.10
2023-01-31T16:17:24.824Z,3.93
2023-01-31T16:19:54.057Z,3.97
2023-01-31T16:22:28.612Z,3.87
2023-01-31T16:25:01.503Z,4.10
2023-01-31T16:27:34.092Z,3.90
2023-01-31T16:30:03.128Z,5.13
2023-01-31T16:32:35.670Z,3.80
2023-01-31T16:35:07.867Z,4.10
2023-01-31T16:37:39.424Z,4.03
2023-01-31T16:40:23.343Z,3.83
2023-01-31T16:43:03.991Z,4.60
2023-01-31T16:45:35.501Z,4.60
2023-01-31T16:48:24.299Z,3.87
2023-01-31T16:50:55.191Z,3.60
2023-01-31T16:53:40.178Z,4.07
2023-01-31T16:56:31.828Z,4.53
2023-01-31T16:59:00.469Z,4.10
2023-01-31T17:01:32.715Z,4.00
2023-01-31T17:04:20.480Z,4.27
2023-01-31T17:07:01.756Z,3.50
2023-01-31T17:09:30.692Z,3.63
2023-01-31T17:12:00.761Z,4.27
2023-01-31T17:14:29.934Z,3.90
2023-01-31T17:16:59.003Z,3.90
2023-01-31T17:19:27.842Z,3.93
2023-01-31T17:21:56.434Z,4.07
2023-01-31T17:24:24.974Z,3.73
2023-01-31T17:27:21.459Z,3.70
2023-01-31T17:29:50.443Z,3.77
2023-01-31T17:32:22.049Z,3.37
2023-01-31T17:34:50.530Z,3.80
2023-01-31T17:37:26.798Z,3.23
2023-01-31T17:40:00.822Z,3.43
2023-01-31T17:42:30.863Z,3.37
2023-01-31T17:44:59.469Z,3.00
2023-01-31T17:47:28.068Z,3.00
2023-01-31T17:49:57.453Z,2.60
2023-01-31T17:52:26.179Z,3.97
2023-01-31T17:54:54.661Z,3.13
2023-01-31T17:57:23.275Z,3.07
2023-01-31T18:00:21.915Z,4.03
2023-01-31T18:02:52.531Z,3.80
2023-01-31T18:05:30.199Z,3.20
2023-01-31T18:08:06.177Z,3.43
2023-01-31T18:10:34.721Z,3.43
2023-01-31T18:13:03.414Z,3.37
2023-01-31T18:15:34.013Z,4.40
2023-01-31T18:18:02.539Z,3.30
2023-01-31T18:20:31.239Z,3.53
2023-01-31T18:22:59.743Z,4.97
2023-01-31T18:25:29.504Z,4.73
2023-01-31T18:27:58.441Z,4.17
2023-01-31T18:30:27.183Z,4.10
2023-01-31T18:32:57.131Z,4.40
2023-01-31T18:35:25.677Z,4.00
2023-01-31T18:37:55.441Z,4.27
2023-01-31T18:40:24.505Z,4.60
2023-01-31T18:42:53.001Z,4.33
2023-01-31T18:45:21.772Z,3.90
2023-01-31T18:47:51.677Z,4.10
2023-01-31T18:50:21.576Z,4.03
2023-01-31T18:53:15.385Z,3.80
2023-01-31T18:56:05.518Z,3.37
2023-01-31T18:58:35.334Z,3.40
2023-01-31T19:01:09.645Z,3.33
2023-01-31T19:03:39.056Z,3.30
2023-01-31T19:06:11.805Z,3.20
2023-01-31T19:08:40.963Z,3.60
2023-01-31T19:11:12.865Z,3.77
2023-01-31T19:13:42.531Z,3.53
2023-01-31T19:16:14.126Z,3.77
2023-01-31T19:18:43.058Z,3.40
2023-01-31T19:21:21.927Z,3.40
2023-01-31T19:23:52.629Z,3.70
2023-01-31T19:26:21.411Z,3.10
2023-01-31T19:28:50.819Z,3.70
2023-01-31T19:31:22.920Z,3.53
2023-01-31T19:33:53.587Z,4.53
2023-01-31T19:36:29.348Z,4.47
2023-01-31T19:39:01.148Z,4.30
2023-01-31T19:41:30.535Z,3.23
2023-01-31T19:44:01.490Z,3.90
2023-01-31T19:46:32.586Z,3.67
2023-01-31T19:49:33.423Z,3.50
2023-01-31T19:52:03.234Z,3.90
2023-01-31T19:54:31.767Z,3.20
2023-01-31T19:57:00.238Z,3.20
2023-01-31T19:59:28.669Z,3.13
2023-01-31T20:01:57.212Z,2.70
2023-01-31T20:04:25.946Z,3.67
2023-01-31T20:06:54.440Z,3.47
2023-01-31T20:09:24.469Z,4.33
2023-01-31T20:11:54.031Z,3.70
2023-01-31T20:14:22.813Z,4.13
2023-01-31T20:16:51.392Z,4.30
2023-01-31T20:20:11.372Z,3.73
2023-01-31T20:22:39.845Z,3.80
2023-01-31T20:25:10.942Z,4.80
2023-01-31T20:27:39.432Z,4.33
2023-01-31T20:30:09.875Z,5.17
2023-01-31T20:32:38.335Z,4.30
2023-01-31T20:35:07.906Z,4.63
2023-01-31T20:37:36.354Z,7.90
2023-01-31T20:40:05.217Z,5.07
2023-01-31T20:42:35.224Z,5.13
2023-01-31T20:45:28.118Z,5.27
2023-01-31T20:47:56.823Z,5.53
2023-01-31T20:50:26.766Z,7.37
2023-01-31T20:52:56.063Z,9.83
2023-01-31T20:55:25.360Z,17.30
2023-01-31T20:57:55.212Z,7.00
2023-01-31T21:00:24.420Z,6.80
2023-01-31T21:02:53.340Z,6.27
2023-01-31T21:05:24.110Z,6.10
2023-01-31T21:07:52.642Z,5.47
2023-01-31T21:10:21.550Z,4.40
2023-01-31T21:12:50.098Z,4.20
2023-01-31T21:15:20.000Z,5.50
2023-01-31T21:17:48.487Z,5.23
2023-01-31T21:20:17.095Z,5.80
2023-01-31T21:22:45.572Z,5.93
2023-01-31T21:25:15.688Z,6.03
2023-01-31T21:27:44.269Z,4.50
2023-01-31T21:30:15.594Z,3.87
2023-01-31T21:32:46.533Z,4.13
2023-01-31T21:35:15.728Z,3.23
2023-01-31T21:37:44.192Z,3.23
2023-01-31T21:40:14.227Z,4.07
2023-01-31T21:42:43.079Z,3.80
2023-01-31T21:45:12.654Z,3.23
2023-01-31T21:47:54.904Z,4.63
2023-01-31T21:50:24.783Z,3.00
2023-01-31T21:52:53.272Z,3.03
2023-01-31T21:55:22.522Z,3.60
2023-01-31T21:57:50.959Z,3.50
2023-01-31T22:00:21.165Z,3.20
2023-01-31T22:02:53.404Z,3.43
2023-01-31T22:05:21.869Z,3.37
2023-01-31T22:07:51.670Z,3.40
2023-01-31T22:10:20.608Z,3.37
2023-01-31T22:12:49.170Z,3.53
2023-01-31T22:15:17.719Z,3.60
2023-01-31T22:17:46.210Z,3.80
2023-01-31T22:20:15.872Z,6.10
2023-01-31T22:22:45.279Z,5.30
2023-01-31T22:25:15.452Z,4.30
2023-01-31T22:27:43.937Z,5.07
2023-01-31T22:30:27.821Z,5.70
2023-01-31T22:32:56.367Z,4.73
2023-01-31T22:35:26.481Z,4.80
2023-01-31T22:37:54.938Z,5.10
2023-01-31T22:40:24.737Z,4.53
2023-01-31T22:42:53.185Z,4.17
2023-01-31T22:45:21.670Z,3.60
2023-01-31T22:47:50.142Z,3.77
2023-01-31T22:50:19.416Z,4.23
2023-01-31T22:52:49.601Z,3.77
2023-01-31T22:55:18.250Z,4.03
2023-01-31T22:57:48.952Z,4.00
2023-01-31T23:00:17.787Z,3.80
2023-01-31T23:02:46.237Z,4.50
2023-01-31T23:05:14.759Z,3.90
2023-01-31T23:07:43.336Z,4.10
2023-01-31T23:10:12.607Z,4.23
2023-01-31T23:12:42.621Z,3.87
2023-01-31T23:15:14.653Z,4.00
2023-01-31T23:17:47.175Z,4.03
2023-01-31T23:20:18.400Z,4.73
2023-01-31T23:22:47.834Z,4.13
2023-01-31T23:25:16.504Z,3.57
2023-01-31T23:27:45.182Z,3.43
2023-01-31T23:30:46.695Z,4.37
2023-01-31T23:33:15.524Z,4.00
2023-01-31T23:35:43.937Z,3.83
2023-01-31T23:38:12.382Z,4.40
2023-01-31T23:40:40.862Z,4.50
2023-01-31T23:43:10.483Z,4.40
2023-01-31T23:45:38.959Z,4.17
2023-01-31T23:48:08.973Z,4.40
2023-01-31T23:50:38.840Z,4.27
2023-01-31T23:53:07.481Z,4.43
2023-01-31T23:55:36.549Z,4.17
2023-01-31T23:58:05.097Z,4.07
